createdAt,value
2023-04-16T00:00:33.037Z,8.98
2023-04-16T00:03:16.037Z,8.52
2023-04-16T00:06:00.614Z,7.45
2023-04-16T00:08:43.666Z,8.88
2023-04-16T00:11:26.437Z,8.20
2023-04-16T00:14:09.139Z,8.18
2023-04-16T00:16:52.118Z,8.35
2023-04-16T00:19:34.789Z,8.13
2023-04-16T00:22:18.821Z,8.10
2023-04-16T00:25:01.504Z,7.75
2023-04-16T00:27:44.171Z,8.40
2023-04-16T00:30:26.965Z,7.82
2023-04-16T00:33:09.784Z,7.82
2023-04-16T00:35:52.464Z,8.30
2023-04-16T00:38:36.630Z,7.82
2023-04-16T00:41:19.250Z,8.45
2023-04-16T00:44:02.371Z,7.95
2023-04-16T00:46:45.275Z,8.05
2023-04-16T00:49:28.536Z,8.40
2023-04-16T00:52:12.925Z,8.23
2023-04-16T00:54:58.367Z,8.32
2023-04-16T00:57:41.185Z,8.20
2023-04-16T01:00:23.873Z,8.25
2023-04-16T01:03:06.899Z,8.32
2023-04-16T01:05:50.649Z,7.88
2023-04-16T01:08:33.461Z,8.15
2023-04-16T01:11:17.648Z,7.70
2023-04-16T01:14:00.376Z,7.97
2023-04-16T01:16:43.513Z,7.82
2023-04-16T01:19:26.863Z,8.10
2023-04-16T01:22:10.950Z,7.63
2023-04-16T01:24:53.615Z,8.15
2023-04-16T01:27:37.596Z,7.68
2023-04-16T01:30:20.578Z,8.70
2023-04-16T01:33:15.339Z,7.60
2023-04-16T01:35:58.026Z,7.63
2023-04-16T01:38:42.080Z,8.13
2023-04-16T01:41:24.704Z,7.65
2023-04-16T01:44:07.647Z,7.43
2023-04-16T01:46:51.205Z,7.70
2023-04-16T01:49:33.884Z,8.02
2023-04-16T01:52:16.541Z,7.68
2023-04-16T01:55:00.583Z,7.60
2023-04-16T01:57:43.244Z,7.13
2023-04-16T02:00:28.070Z,7.07
2023-04-16T02:03:10.904Z,7.20
2023-04-16T02:05:53.614Z,7.55
2023-04-16T02:08:36.249Z,7.70
2023-04-16T02:11:20.198Z,7.45
2023-04-16T02:14:03.936Z,7.32
2023-04-16T02:16:46.781Z,8.55
2023-04-16T02:19:50.458Z,8.73
2023-04-16T02:22:33.928Z,7.47
2023-04-16T02:25:16.801Z,9.18
2023-04-16T02:28:01.144Z,8.63
2023-04-16T02:30:56.006Z,8.20
2023-04-16T02:33:39.053Z,9.10
2023-04-16T02:36:21.773Z,8.98
2023-04-16T02:39:04.597Z,8.70
2023-04-16T02:41:47.224Z,8.25
2023-04-16T02:44:31.290Z,8.63
2023-04-16T02:47:13.949Z,8.95
2023-04-16T02:49:56.598Z,8.85
2023-04-16T02:52:39.318Z,8.45
2023-04-16T02:55:22.078Z,8.90
2023-04-16T02:58:04.791Z,9.50
2023-04-16T03:00:48.909Z,8.35
2023-04-16T03:03:31.511Z,9.43
2023-04-16T03:06:14.129Z,8.95
2023-04-16T03:08:56.714Z,8.93
2023-04-16T03:11:39.462Z,8.82
2023-04-16T03:14:22.078Z,9.45
2023-04-16T03:17:06.291Z,9.48
2023-04-16T03:19:50.693Z,9.40
2023-04-16T03:22:35.469Z,8.75
2023-04-16T03:25:18.175Z,9.45
2023-04-16T03:28:00.952Z,9.45
2023-04-16T03:30:43.662Z,9.07
2023-04-16T03:33:27.714Z,8.93
2023-04-16T03:36:11.057Z,9.18
2023-04-16T03:38:53.833Z,9.40
2023-04-16T03:41:36.544Z,9.10
2023-04-16T03:44:19.257Z,9.00
2023-04-16T03:47:01.969Z,8.43
2023-04-16T03:49:46.333Z,9.15
2023-04-16T03:52:29.259Z,9.35
2023-04-16T03:55:12.403Z,8.55
2023-04-16T03:57:55.705Z,8.60
2023-04-16T04:00:38.335Z,9.15
2023-04-16T04:03:27.292Z,9.05
2023-04-16T04:06:12.361Z,8.55
2023-04-16T04:08:55.335Z,8.35
2023-04-16T04:11:37.950Z,8.85
2023-04-16T04:14:20.660Z,8.73
2023-04-16T04:17:03.227Z,8.10
2023-04-16T04:20:00.052Z,8.77
2023-04-16T04:22:45.207Z,8.70
2023-04-16T04:25:28.057Z,8.73
2023-04-16T04:28:10.685Z,8.27
2023-04-16T04:30:54.386Z,8.23
2023-04-16T04:33:37.338Z,7.93
2023-04-16T04:36:19.906Z,8.68
2023-04-16T04:39:05.066Z,8.85
2023-04-16T04:41:48.141Z,9.10
2023-04-16T04:44:30.825Z,8.75
2023-04-16T04:47:13.522Z,8.55
2023-04-16T04:49:56.159Z,7.93
2023-04-16T04:52:39.064Z,8.65
2023-04-16T04:55:27.285Z,8.90
2023-04-16T04:58:10.032Z,8.48
2023-04-16T05:00:53.534Z,8.30
2023-04-16T05:03:36.483Z,8.73
2023-04-16T05:06:19.351Z,9.15
2023-04-16T05:09:01.943Z,8.50
2023-04-16T05:11:45.865Z,9.05
2023-04-16T05:14:28.434Z,8.77
2023-04-16T05:17:11.777Z,9.00
2023-04-16T05:19:54.407Z,8.55
2023-04-16T05:22:37.107Z,9.63
2023-04-16T05:25:19.738Z,8.65
2023-04-16T05:28:04.042Z,9.00
2023-04-16T05:30:46.727Z,9.00
2023-04-16T05:33:29.477Z,8.77
2023-04-16T05:36:12.065Z,8.07
2023-04-16T05:38:54.680Z,9.10
2023-04-16T05:41:37.374Z,8.73
2023-04-16T05:44:21.398Z,8.23
2023-04-16T05:47:03.986Z,8.73
2023-04-16T05:49:46.667Z,9.43
2023-04-16T05:52:29.314Z,8.30
2023-04-16T05:55:11.952Z,9.43
2023-04-16T05:57:54.562Z,8.80
2023-04-16T06:00:38.525Z,9.30
2023-04-16T06:03:21.307Z,8.55
2023-04-16T06:06:03.996Z,8.65
2023-04-16T06:08:46.900Z,9.25
2023-04-16T06:11:30.604Z,8.98
2023-04-16T06:14:13.240Z,9.00
2023-04-16T06:16:57.394Z,8.65
2023-04-16T06:19:40.047Z,8.75
2023-04-16T06:22:22.681Z,8.43
2023-04-16T06:25:05.730Z,8.48
2023-04-16T06:27:48.520Z,8.50
2023-04-16T06:30:31.165Z,8.73
2023-04-16T06:33:15.386Z,8.02
2023-04-16T06:35:58.028Z,8.20
2023-04-16T06:38:40.665Z,8.32
2023-04-16T06:41:27.089Z,9.15
2023-04-16T06:44:09.700Z,8.93
2023-04-16T06:46:52.369Z,8.57
2023-04-16T06:49:36.310Z,8.68
2023-04-16T06:52:18.992Z,8.82
2023-04-16T06:55:01.920Z,7.90
2023-04-16T06:57:44.711Z,7.35
2023-04-16T07:00:27.312Z,7.95
2023-04-16T07:03:10.064Z,7.50
2023-04-16T07:05:54.185Z,8.45
2023-04-16T07:08:36.823Z,7.70
2023-04-16T07:11:20.175Z,8.15
2023-04-16T07:14:02.760Z,8.30
2023-04-16T07:16:45.344Z,8.25
2023-04-16T07:19:30.503Z,7.68
2023-04-16T07:22:14.501Z,8.20
2023-04-16T07:24:57.145Z,8.30
2023-04-16T07:27:39.761Z,8.07
2023-04-16T07:30:22.378Z,8.13
2023-04-16T07:33:06.217Z,7.53
2023-04-16T07:35:48.874Z,7.55
2023-04-16T07:38:32.859Z,7.20
2023-04-16T07:41:16.057Z,8.27
2023-04-16T07:43:58.964Z,7.57
2023-04-16T07:46:47.056Z,7.78
2023-04-16T07:49:30.334Z,7.70
2023-04-16T07:52:13.017Z,7.43
2023-04-16T07:54:57.000Z,7.68
2023-04-16T07:57:39.666Z,7.88
2023-04-16T08:00:22.470Z,7.38
2023-04-16T08:03:05.373Z,7.50
2023-04-16T08:05:48.141Z,7.50
2023-04-16T08:08:30.790Z,7.47
2023-04-16T08:11:15.365Z,8.02
2023-04-16T08:13:57.997Z,7.05
2023-04-16T08:16:40.620Z,7.43
2023-04-16T08:32:43.865Z,7.53
2023-04-16T08:35:26.624Z,6.70
2023-04-16T08:38:09.661Z,7.25
2023-04-16T08:41:14.940Z,8.00
2023-04-16T08:43:58.795Z,6.72
2023-04-16T08:46:43.476Z,7.30
2023-04-16T08:49:27.668Z,7.45
2023-04-16T08:52:12.999Z,7.65
2023-04-16T08:54:58.372Z,7.78
2023-04-16T08:57:45.655Z,7.80
2023-04-16T09:00:29.595Z,7.80
2023-04-16T09:03:12.333Z,7.53
2023-04-16T09:05:57.853Z,7.53
2023-04-16T09:08:40.549Z,7.40
2023-04-16T09:11:23.156Z,7.35
2023-04-16T09:14:05.857Z,7.57
2023-04-16T09:16:49.084Z,7.43
2023-04-16T09:19:31.762Z,7.88
2023-04-16T09:22:17.164Z,7.10
2023-04-16T09:24:59.816Z,6.97
2023-04-16T09:27:42.397Z,7.50
2023-04-16T09:30:31.395Z,7.13
2023-04-16T09:33:16.478Z,7.82
2023-04-16T09:35:59.131Z,7.53
2023-04-16T09:38:49.604Z,7.20
2023-04-16T09:41:33.158Z,7.65
2023-04-16T09:44:15.800Z,7.90
2023-04-16T09:47:06.758Z,7.20
2023-04-16T09:49:49.440Z,7.13
2023-04-16T09:52:32.021Z,8.00
2023-04-16T09:55:16.023Z,7.45
2023-04-16T09:58:02.063Z,7.60
2023-04-16T10:00:44.849Z,7.70
2023-04-16T10:03:30.832Z,7.90
2023-04-16T10:06:15.719Z,8.02
2023-04-16T10:08:58.480Z,7.40
2023-04-16T10:11:42.689Z,7.50
2023-04-16T10:14:25.345Z,7.15
2023-04-16T10:17:08.065Z,7.68
2023-04-16T10:19:51.789Z,7.07
2023-04-16T10:22:34.675Z,8.10
2023-04-16T10:25:17.770Z,7.50
2023-04-16T10:28:01.782Z,7.45
2023-04-16T10:30:52.689Z,7.80
2023-04-16T10:33:36.415Z,8.63
2023-04-16T10:36:24.285Z,8.00
2023-04-16T10:39:11.310Z,8.23
2023-04-16T10:42:07.762Z,7.65
2023-04-16T10:44:51.769Z,7.70
2023-04-16T10:47:40.810Z,7.68
2023-04-16T10:50:23.440Z,8.35
2023-04-16T10:53:18.824Z,8.30
2023-04-16T10:56:16.506Z,8.10
2023-04-16T10:58:59.228Z,7.22
2023-04-16T11:01:44.178Z,7.88
2023-04-16T11:04:31.788Z,7.63
2023-04-16T11:07:16.876Z,7.88
2023-04-16T11:10:00.494Z,7.75
2023-04-16T11:12:44.894Z,7.68
2023-04-16T11:15:30.881Z,8.60
2023-04-16T11:18:19.948Z,7.78
2023-04-16T11:21:03.094Z,8.15
2023-04-16T11:23:49.452Z,7.60
2023-04-16T11:26:32.069Z,7.47
2023-04-16T11:29:15.088Z,8.20
2023-04-16T11:31:57.698Z,7.80
2023-04-16T11:34:48.101Z,7.30
2023-04-16T11:37:34.795Z,7.95
2023-04-16T11:40:17.447Z,7.60
2023-04-16T11:43:02.187Z,7.57
2023-04-16T11:45:56.512Z,7.00
2023-04-16T11:48:49.497Z,7.70
2023-04-16T11:51:33.807Z,7.70
2023-04-16T11:54:20.382Z,7.40
2023-04-16T11:57:04.385Z,7.32
2023-04-16T12:00:02.407Z,7.03
2023-04-16T12:02:55.570Z,7.78
2023-04-16T12:05:39.486Z,7.25
2023-04-16T12:08:31.745Z,8.00
2023-04-16T12:11:14.455Z,7.80
2023-04-16T12:14:09.952Z,7.18
2023-04-16T12:16:52.735Z,7.35
2023-04-16T12:19:48.840Z,7.80
2023-04-16T12:22:32.086Z,7.35
2023-04-16T12:25:18.050Z,7.35
2023-04-16T12:28:01.626Z,8.30
2023-04-16T12:30:50.870Z,7.57
2023-04-16T12:33:33.613Z,7.50
2023-04-16T12:36:19.736Z,7.72
2023-04-16T12:39:06.436Z,7.90
2023-04-16T12:41:50.365Z,7.75
2023-04-16T12:44:33.060Z,7.50
2023-04-16T12:47:15.991Z,7.80
2023-04-16T12:49:58.760Z,8.05
2023-04-16T12:52:41.488Z,7.22
2023-04-16T12:55:24.259Z,8.43
2023-04-16T12:58:11.195Z,7.80
2023-04-16T13:00:54.641Z,7.43
2023-04-16T13:03:37.445Z,8.27
2023-04-16T13:06:20.843Z,7.63
2023-04-16T13:09:04.136Z,7.40
2023-04-16T13:11:46.861Z,7.32
2023-04-16T13:14:30.871Z,8.10
2023-04-16T13:17:13.506Z,7.53
2023-04-16T13:19:56.213Z,7.43
2023-04-16T13:22:38.946Z,8.05
2023-04-16T13:25:21.568Z,7.65
2023-04-16T13:28:04.225Z,7.32
2023-04-16T13:30:48.431Z,8.50
2023-04-16T13:33:31.233Z,9.77
2023-04-16T13:36:13.896Z,8.50
2023-04-16T13:38:56.511Z,7.53
2023-04-16T13:41:39.390Z,8.02
2023-04-16T13:44:22.030Z,7.60
2023-04-16T13:47:08.476Z,7.50
2023-04-16T13:49:51.070Z,7.78
2023-04-16T13:52:33.752Z,7.55
2023-04-16T13:55:19.015Z,7.20
2023-04-16T13:58:01.668Z,8.10
2023-04-16T14:00:44.503Z,7.20
2023-04-16T14:03:32.449Z,7.63
2023-04-16T14:06:17.919Z,7.75
2023-04-16T14:09:01.239Z,7.63
2023-04-16T14:11:43.865Z,7.57
2023-04-16T14:14:26.760Z,7.75
2023-04-16T14:17:09.447Z,7.72
2023-04-16T14:19:53.440Z,7.90
2023-04-16T14:22:36.133Z,8.65
2023-04-16T14:25:18.811Z,7.43
2023-04-16T14:28:01.618Z,7.78
2023-04-16T14:30:44.265Z,7.80
2023-04-16T14:33:27.233Z,8.30
2023-04-16T14:36:11.507Z,8.15
2023-04-16T14:38:54.122Z,8.07
2023-04-16T14:41:39.472Z,8.40
2023-04-16T14:44:22.648Z,7.40
2023-04-16T14:47:05.320Z,8.00
2023-04-16T14:49:47.967Z,7.78
2023-04-16T14:52:33.075Z,8.00
2023-04-16T14:55:15.737Z,7.88
2023-04-16T14:57:58.716Z,8.15
2023-04-16T15:00:43.422Z,7.72
2023-04-16T15:03:26.247Z,8.00
2023-04-16T15:06:09.239Z,8.10
2023-04-16T15:08:53.265Z,8.70
2023-04-16T15:11:35.883Z,7.40
2023-04-16T15:14:18.513Z,8.00
2023-04-16T15:17:01.304Z,8.88
2023-04-16T15:19:44.022Z,8.85
2023-04-16T15:22:27.345Z,7.70
2023-04-16T15:25:11.544Z,8.00
2023-04-16T15:27:54.209Z,8.48
2023-04-16T15:30:36.968Z,8.07
2023-04-16T15:33:21.665Z,8.63
2023-04-16T15:36:04.491Z,7.93
2023-04-16T15:38:47.137Z,8.40
2023-04-16T15:41:31.850Z,8.43
2023-04-16T15:44:14.518Z,8.52
2023-04-16T15:46:57.130Z,8.15
2023-04-16T15:49:39.776Z,7.80
2023-04-16T15:52:22.378Z,7.95
2023-04-16T15:55:05.301Z,8.80
2023-04-16T15:57:49.303Z,8.38
2023-04-16T16:00:32.039Z,8.60
2023-04-16T16:03:14.821Z,8.68
2023-04-16T16:05:59.351Z,8.35
2023-04-16T16:08:43.560Z,7.95
2023-04-16T16:11:26.345Z,8.10
2023-04-16T16:14:10.811Z,8.45
2023-04-16T16:16:56.236Z,7.28
2023-04-16T16:19:38.848Z,8.05
2023-04-16T16:22:23.544Z,8.40
2023-04-16T16:25:06.888Z,7.68
2023-04-16T16:27:49.563Z,8.60
2023-04-16T16:30:33.605Z,7.82
2023-04-16T16:33:16.253Z,8.35
2023-04-16T16:35:59.051Z,8.32
2023-04-16T16:38:42.415Z,8.20
2023-04-16T16:41:25.087Z,7.60
2023-04-16T16:44:07.673Z,7.93
2023-04-16T16:46:51.995Z,7.85
2023-04-16T16:49:34.643Z,8.07
2023-04-16T16:52:17.232Z,8.90
2023-04-16T16:54:59.917Z,8.63
2023-04-16T16:57:42.562Z,7.25
2023-04-16T17:00:25.458Z,7.53
2023-04-16T17:03:10.002Z,7.63
2023-04-16T17:05:52.764Z,8.13
2023-04-16T17:08:35.389Z,7.30
2023-04-16T17:11:18.072Z,8.35
2023-04-16T17:14:00.761Z,8.00
2023-04-16T17:16:46.298Z,8.05
2023-04-16T17:19:30.414Z,8.70
2023-04-16T17:22:13.074Z,8.52
2023-04-16T17:24:55.705Z,8.82
2023-04-16T17:27:41.330Z,8.30
2023-04-16T17:30:25.888Z,8.23
2023-04-16T17:33:08.638Z,9.07
2023-04-16T17:35:52.775Z,8.55
2023-04-16T17:38:35.461Z,8.65
2023-04-16T17:41:18.084Z,8.55
2023-04-16T17:44:00.776Z,20.95
2023-04-16T17:46:43.342Z,10.05
2023-04-16T17:49:25.988Z,8.82
2023-04-16T17:52:09.948Z,7.85
2023-04-16T17:54:53.194Z,8.30
2023-04-16T17:57:35.877Z,7.90
2023-04-16T18:00:19.159Z,8.27
2023-04-16T18:03:01.981Z,8.85
2023-04-16T18:05:44.810Z,8.20
2023-04-16T18:08:28.827Z,8.18
2023-04-16T18:11:11.443Z,7.45
2023-04-16T18:13:54.113Z,8.68
2023-04-16T18:16:36.784Z,8.30
2023-04-16T18:19:19.445Z,8.32
2023-04-16T18:22:02.050Z,8.18
2023-04-16T18:24:46.581Z,8.02
2023-04-16T18:27:29.978Z,7.90
2023-04-16T18:30:20.145Z,7.60
2023-04-16T18:33:37.444Z,8.65
2023-04-16T18:36:08.868Z,7.78
2023-04-16T18:39:00.802Z,8.30
2023-04-16T18:41:47.812Z,8.70
2023-04-16T18:44:30.536Z,8.52
2023-04-16T18:47:13.219Z,8.23
2023-04-16T18:49:55.986Z,8.52
2023-04-16T18:52:38.713Z,8.75
2023-04-16T18:55:21.381Z,9.10
2023-04-16T18:58:05.428Z,13.25
2023-04-16T19:00:48.188Z,11.95
2023-04-16T19:03:31.631Z,9.98
2023-04-16T19:06:14.867Z,10.23
2023-04-16T19:08:57.684Z,9.77
2023-04-16T19:11:40.450Z,9.30
2023-04-16T19:14:24.526Z,8.57
2023-04-16T19:17:07.297Z,9.13
2023-04-16T19:19:49.958Z,8.55
2023-04-16T19:22:32.758Z,8.93
2023-04-16T19:25:15.796Z,8.57
2023-04-16T19:27:58.447Z,8.85
2023-04-16T19:30:46.706Z,8.55
2023-04-16T19:33:29.790Z,8.30
2023-04-16T19:36:14.380Z,9.05
2023-04-16T19:38:57.187Z,8.30
2023-04-16T19:41:39.870Z,8.55
2023-04-16T19:44:23.484Z,7.93
2023-04-16T19:47:07.554Z,8.52
2023-04-16T19:49:50.259Z,8.10
2023-04-16T19:52:37.360Z,7.80
2023-04-16T19:55:20.082Z,9.07
2023-04-16T19:58:06.449Z,8.75
2023-04-16T20:00:49.640Z,8.60
2023-04-16T20:03:33.777Z,8.25
2023-04-16T20:06:17.400Z,8.80
2023-04-16T20:09:00.060Z,8.23
2023-04-16T20:11:42.718Z,8.05
2023-04-16T20:14:25.390Z,8.15
2023-04-16T20:17:09.835Z,7.47
2023-04-16T20:19:57.544Z,8.30
2023-04-16T20:22:40.698Z,7.63
2023-04-16T20:25:26.173Z,7.63
2023-04-16T20:28:08.804Z,7.78
2023-04-16T20:30:51.492Z,7.40
2023-04-16T20:33:34.160Z,7.50
2023-04-16T20:36:18.228Z,7.03
2023-04-16T20:39:02.108Z,7.43
2023-04-16T20:41:46.316Z,7.70
2023-04-16T20:44:33.177Z,8.10
2023-04-16T20:47:17.037Z,7.53
2023-04-16T20:50:01.692Z,8.23
2023-04-16T20:52:45.682Z,7.60
2023-04-16T20:55:28.341Z,7.35
2023-04-16T20:58:11.176Z,7.10
2023-04-16T21:00:54.271Z,7.13
2023-04-16T21:03:37.238Z,7.32
2023-04-16T21:06:22.392Z,7.72
2023-04-16T21:09:06.953Z,7.70
2023-04-16T21:11:49.552Z,8.60
2023-04-16T21:14:32.428Z,8.23
2023-04-16T21:17:15.052Z,8.57
2023-04-16T21:19:57.672Z,8.85
2023-04-16T21:22:40.391Z,8.15
2023-04-16T21:25:24.458Z,8.48
2023-04-16T21:28:07.325Z,8.88
2023-04-16T21:30:51.879Z,9.65
2023-04-16T21:33:34.530Z,9.65
2023-04-16T21:36:17.265Z,9.82
2023-04-16T21:38:59.898Z,10.23
2023-04-16T21:41:43.981Z,9.65
2023-04-16T21:44:26.634Z,9.82
2023-04-16T21:47:09.253Z,10.15
2023-04-16T21:49:51.943Z,11.23
2023-04-16T21:52:40.064Z,11.27
2023-04-16T21:55:24.016Z,11.15
2023-04-16T21:58:08.004Z,11.15
2023-04-16T22:00:50.668Z,11.68
2023-04-16T22:03:33.493Z,12.45
2023-04-16T22:06:16.663Z,12.52
2023-04-16T22:08:59.434Z,12.00
2023-04-16T22:11:42.056Z,11.68
2023-04-16T22:14:26.055Z,11.63
2023-04-16T22:17:09.321Z,11.80
2023-04-16T22:19:53.444Z,11.15
2023-04-16T22:22:36.171Z,11.10
2023-04-16T22:25:18.767Z,11.55
2023-04-16T22:28:01.798Z,11.15
2023-04-16T22:30:45.793Z,11.57
2023-04-16T22:33:30.184Z,10.52
2023-04-16T22:36:12.776Z,11.00
2023-04-16T22:38:55.368Z,10.80
2023-04-16T22:41:38.016Z,11.00
2023-04-16T22:44:20.662Z,10.68
2023-04-16T22:47:04.660Z,11.10
2023-04-16T22:49:47.620Z,12.95
2023-04-16T22:52:30.418Z,10.77
2023-04-16T22:55:13.054Z,9.93
2023-04-16T22:57:55.675Z,9.23
2023-04-16T23:00:38.327Z,10.32
2023-04-16T23:03:22.410Z,10.20
2023-04-16T23:06:06.361Z,9.30
2023-04-16T23:08:48.985Z,9.10
2023-04-16T23:11:31.584Z,8.75
2023-04-16T23:14:16.208Z,8.60
2023-04-16T23:16:59.498Z,8.85
2023-04-16T23:19:43.481Z,8.70
2023-04-16T23:22:26.070Z,8.80
2023-04-16T23:25:09.074Z,9.35
2023-04-16T23:27:51.798Z,8.65
2023-04-16T23:30:34.423Z,8.80
2023-04-16T23:33:17.040Z,8.43
2023-04-16T23:36:01.065Z,8.90
2023-04-16T23:38:43.660Z,8.88
2023-04-16T23:41:26.235Z,8.95
2023-04-16T23:44:08.809Z,9.65
2023-04-16T23:46:51.439Z,9.32
2023-04-16T23:49:34.058Z,8.98
2023-04-16T23:52:17.968Z,8.82
2023-04-16T23:55:00.688Z,8.82
2023-04-16T23:57:43.244Z,8.30
